Time;durP1;ratioP1;P1;durP2;ratioP2;P2;SDS_P1;SDS_P2;PMS_P1;PMS_P2;Temp;Humidity;BMP_temperature;BMP_pressure;BME280_temperature;BME280_humidity;BME280_pressure;Samples;Min_cycle;Max_cycle;Signal;HPM_P1;HPM_P2
2021/04/26 07:31:18;;;;;;;19.60;8.20;;;11.00;94.80;;;;;;5979793;23;20019;-89
2021/04/26 07:33:45;;;;;;;15.25;7.53;;;11.10;94.70;;;;;;4953905;28;20506;-90
2021/04/26 07:36:12;;;;;;;14.60;7.55;;;11.20;94.60;;;;;;4954585;28;20043;-93
2021/04/26 07:38:38;;;;;;;15.32;7.60;;;11.30;94.10;;;;;;4953798;28;20097;-89
2021/04/26 07:41:05;;;;;;;17.45;7.72;;;11.50;94.00;;;;;;4956454;28;20106;-92
2021/04/26 07:43:32;;;;;;;17.15;7.82;;;11.60;93.40;;;;;;4956189;28;20047;-93
2021/04/26 07:45:58;;;;;;;13.60;7.38;;;11.70;93.10;;;;;;4957299;28;20046;-90
2021/04/26 07:48:25;;;;;;;16.73;7.53;;;11.80;93.10;;;;;;4949928;28;20047;-90
2021/04/26 07:50:51;;;;;;;16.27;7.35;;;11.80;92.80;;;;;;4953197;28;20047;-87
2021/04/26 07:53:18;;;;;;;19.17;7.43;;;12.00;92.60;;;;;;4955113;28;20055;-92
2021/04/26 07:55:44;;;;;;;17.00;7.47;;;12.10;92.40;;;;;;4955845;29;20506;-93
2021/04/26 07:58:11;;;;;;;15.13;7.15;;;12.10;92.30;;;;;;4954866;28;20106;-88
2021/04/26 08:00:37;;;;;;;17.17;5.90;;;12.10;92.20;;;;;;4957877;28;20043;-92
2021/04/26 08:03:04;;;;;;;12.43;7.07;;;12.20;92.00;;;;;;4956589;28;20131;-90
2021/04/26 08:05:32;;;;;;;13.10;6.60;;;12.30;91.90;;;;;;4958016;28;20458;-90
2021/04/26 08:07:58;;;;;;;15.82;6.50;;;12.30;91.80;;;;;;4954989;28;20501;-93
2021/04/26 08:10:25;;;;;;;13.77;6.80;;;12.40;91.50;;;;;;4947585;28;20147;-92
2021/04/26 08:12:52;;;;;;;13.32;6.55;;;12.50;91.60;;;;;;4949415;29;20043;-93
2021/04/26 08:15:19;;;;;;;13.07;6.70;;;12.60;91.50;;;;;;4947257;28;20051;-90
2021/04/26 08:17:47;;;;;;;16.27;5.70;;;12.70;91.10;;;;;;4953107;28;20110;-91
2021/04/26 08:20:13;;;;;;;16.67;5.93;;;12.80;90.60;;;;;;4949437;28;20050;-91
2021/04/26 08:22:40;;;;;;;14.70;5.80;;;13.00;90.70;;;;;;4954506;29;20062;-87
2021/04/26 08:25:08;;;;;;;14.25;6.07;;;13.10;90.20;;;;;;4954670;28;20476;-93
2021/04/26 08:27:34;;;;;;;11.50;5.00;;;13.20;90.10;;;;;;4953120;29;20051;-92
2021/04/26 08:30:02;;;;;;;12.45;5.75;;;13.30;90.30;;;;;;4935480;29;20115;-89
2021/04/26 08:32:29;;;;;;;16.08;6.00;;;13.50;90.20;;;;;;4940379;29;20048;-90
2021/04/26 08:34:56;;;;;;;13.38;5.95;;;13.70;90.00;;;;;;4948846;28;20127;-93
2021/04/26 08:37:22;;;;;;;14.65;5.45;;;13.80;88.90;;;;;;4957965;28;20102;-93
2021/04/26 08:39:49;;;;;;;13.90;5.38;;;13.90;89.20;;;;;;4953586;29;20573;-94
2021/04/26 08:42:17;;;;;;;13.38;5.07;;;14.10;88.20;;;;;;4954314;28;20502;-90
2021/04/26 08:44:44;;;;;;;14.15;5.30;;;14.20;87.20;;;;;;4959824;28;20130;-94
2021/04/26 08:47:12;;;;;;;14.15;5.30;;;14.30;86.70;;;;;;4957551;28;20583;-95
2021/04/26 08:49:38;;;;;;;20.48;4.95;;;14.40;86.80;;;;;;4947773;28;20507;-90
2021/04/26 08:52:07;;;;;;;15.32;5.35;;;14.50;85.80;;;;;;4933995;29;20043;-91
2021/04/26 08:54:34;;;;;;;12.00;5.18;;;14.60;85.40;;;;;;4935187;29;20072;-91
2021/04/26 08:57:00;;;;;;;14.23;5.35;;;14.70;85.50;;;;;;4953710;29;20048;-94
2021/04/26 08:59:27;;;;;;;13.05;5.28;;;14.80;85.20;;;;;;4954013;28;20490;-91
2021/04/26 09:02:05;;;;;;;11.63;4.90;;;14.90;85.20;;;;;;4953486;28;20055;-92
2021/04/26 09:04:34;;;;;;;10.77;4.90;;;15.10;84.70;;;;;;4953009;28;20043;-92
2021/04/26 09:07:03;;;;;;;;;;;15.20;84.10;;;;;;4952016;28;20050;-91
2021/04/26 09:09:42;;;;;;;11.50;4.80;;;15.30;82.10;;;;;;4950722;28;19923;-92
2021/04/26 09:12:29;;;;;;;16.38;5.32;;;15.40;83.10;;;;;;4967400;28;20046;-94
2021/04/26 09:15:00;;;;;;;12.98;4.90;;;15.50;81.90;;;;;;4950493;29;20055;-90
2021/04/26 09:17:37;;;;;;;8.30;4.55;;;15.60;82.50;;;;;;4950006;28;20109;-91
2021/04/26 09:20:16;;;;;;;9.60;4.22;;;15.70;82.00;;;;;;4944304;29;20047;-89
2021/04/26 09:22:51;;;;;;;11.45;4.70;;;15.90;80.00;;;;;;4949637;29;20047;-94
2021/04/26 09:25:28;;;;;;;10.90;4.38;;;16.00;80.00;;;;;;4951975;28;20059;-90
2021/04/26 09:27:56;;;;;;;13.27;4.72;;;16.10;81.00;;;;;;4952209;29;20043;-92
2021/04/26 09:30:43;;;;;;;8.95;4.22;;;16.30;80.70;;;;;;4956017;28;20058;-93
2021/04/26 09:33:16;;;;;;;10.55;4.20;;;16.40;79.00;;;;;;4949597;28;20409;-94
2021/04/26 09:35:44;;;;;;;13.93;4.63;;;16.50;78.50;;;;;;4983195;28;20101;-91
2021/04/26 09:38:33;;;;;;;9.75;3.83;;;16.60;78.20;;;;;;4961033;28;20458;-93
2021/04/26 09:41:20;;;;;;;9.13;4.03;;;16.70;76.50;;;;;;4954048;29;20055;-91
2021/04/26 09:43:52;;;;;;;9.95;3.78;;;16.80;75.80;;;;;;4948508;29;20102;-90
2021/04/26 09:46:36;;;;;;;14.02;5.07;;;16.90;76.50;;;;;;4944941;29;20079;-91
2021/04/26 09:49:08;;;;;;;11.85;4.22;;;17.00;75.20;;;;;;4950259;29;20102;-93
2021/04/26 09:51:35;;;;;;;11.93;4.35;;;17.00;74.30;;;;;;4950804;29;20391;-94
2021/04/26 09:54:03;;;;;;;17.92;4.80;;;17.10;74.50;;;;;;4950943;29;20078;-94
2021/04/26 09:56:38;;;;;;;11.25;4.53;;;17.00;74.30;;;;;;4951894;29;20099;-93
2021/04/26 09:59:04;;;;;;;12.75;4.57;;;17.00;74.10;;;;;;4946823;28;20498;-91
2021/04/26 10:01:32;;;;;;;13.30;4.88;;;17.00;74.90;;;;;;4951054;28;20051;-93
2021/04/26 10:04:00;;;;;;;12.32;4.43;;;16.80;74.10;;;;;;4951033;28;20054;-91
2021/04/26 10:06:28;;;;;;;13.65;4.72;;;16.70;74.80;;;;;;4950887;28;20051;-94
2021/04/26 10:09:00;;;;;;;13.30;4.55;;;16.70;74.90;;;;;;4951225;29;20564;-92
2021/04/26 10:11:30;;;;;;;9.95;4.05;;;16.80;75.10;;;;;;4949388;28;20058;-92
2021/04/26 10:14:06;;;;;;;13.48;4.55;;;16.70;73.90;;;;;;4954832;28;20047;-93
2021/04/26 10:16:46;;;;;;;10.32;4.50;;;16.70;73.00;;;;;;4954449;29;20482;-90
2021/04/26 10:19:14;;;;;;;9.80;3.90;;;16.70;72.60;;;;;;4955475;28;20054;-92
2021/04/26 10:21:54;;;;;;;7.82;4.40;;;16.70;72.30;;;;;;4956878;28;20135;-91
2021/04/26 10:24:25;;;;;;;8.55;4.38;;;16.80;70.90;;;;;;4955727;28;20051;-94
2021/04/26 10:27:01;;;;;;;9.02;4.40;;;16.80;71.60;;;;;;4954356;29;20058;-91
2021/04/26 10:29:35;;;;;;;9.60;3.78;;;17.00;71.70;;;;;;4952125;28;20371;-93
2021/04/26 10:32:04;;;;;;;11.63;3.70;;;17.10;70.60;;;;;;4953027;29;20144;-94
2021/04/26 10:34:33;;;;;;;5.40;3.20;;;17.20;70.00;;;;;;4946806;29;20507;-88
2021/04/26 10:37:03;;;;;;;10.60;3.75;;;17.40;69.60;;;;;;4951162;29;20051;-88
2021/04/26 10:39:35;;;;;;;10.85;3.80;;;17.50;69.10;;;;;;4954115;29;20050;-89
2021/04/26 10:42:10;;;;;;;11.43;4.20;;;17.70;69.70;;;;;;4953829;29;20098;-89
2021/04/26 10:44:40;;;;;;;10.80;4.30;;;17.80;69.60;;;;;;4951865;28;20079;-89
2021/04/26 10:47:25;;;;;;;10.18;3.90;;;17.80;69.40;;;;;;4955044;28;20050;-93
2021/04/26 10:50:01;;;;;;;14.90;3.90;;;17.80;69.70;;;;;;4954523;29;20478;-95
2021/04/26 10:55:01;;;;;;;10.65;3.45;;;17.80;67.50;;;;;;4956815;28;20426;-94
2021/04/26 10:57:42;;;;;;;7.28;3.20;;;17.80;65.70;;;;;;4956077;28;20053;-93
2021/04/26 11:00:23;;;;;;;11.02;3.75;;;17.90;65.80;;;;;;4956007;28;20051;-96
2021/04/26 11:03:11;;;;;;;8.73;3.78;;;17.90;65.20;;;;;;4952273;29;20062;-91
2021/04/26 11:05:46;;;;;;;8.52;3.42;;;18.00;65.50;;;;;;4938891;29;20095;-90
2021/04/26 11:08:36;;;;;;;17.83;3.83;;;18.10;64.10;;;;;;4952901;28;20462;-89
2021/04/26 11:14:02;;;;;;;5.70;3.08;;;18.20;64.70;;;;;;4897599;29;20064;-93
2021/04/26 11:16:57;;;;;;;8.07;3.25;;;18.30;65.40;;;;;;4885008;29;20053;-93
2021/04/26 11:19:24;;;;;;;8.55;3.60;;;18.40;65.20;;;;;;4891098;29;20085;-91
2021/04/26 11:21:53;;;;;;;7.90;3.60;;;18.40;62.10;;;;;;4897235;29;20472;-88
2021/04/26 11:24:22;;;;;;;6.90;3.03;;;18.50;63.60;;;;;;4896692;29;20083;-89
2021/04/26 11:27:07;;;;;;;8.90;3.42;;;18.60;64.20;;;;;;4890725;29;20482;-87
2021/04/26 11:29:54;;;;;;;11.00;3.60;;;18.50;62.30;;;;;;4891297;29;20124;-83
2021/04/26 11:32:25;;;;;;;6.30;3.17;;;18.40;61.00;;;;;;4887869;29;20064;-85
2021/04/26 11:34:56;;;;;;;7.72;3.70;;;18.40;61.90;;;;;;4901996;29;20553;-83
2021/04/26 11:37:23;;;;;;;10.48;4.78;;;18.40;62.90;;;;;;4887671;29;20172;-87
2021/04/26 11:39:53;;;;;;;10.25;4.75;;;18.30;65.30;;;;;;4902546;29;20108;-82
2021/04/26 11:42:20;;;;;;;9.23;4.53;;;18.30;66.70;;;;;;4898779;29;20515;-85
2021/04/26 11:44:47;;;;;;;10.45;4.30;;;18.20;65.80;;;;;;4895043;29;20053;-82
2021/04/26 11:47:16;;;;;;;7.97;4.40;;;18.10;66.70;;;;;;4894448;29;20570;-85
2021/04/26 11:49:45;;;;;;;13.68;4.45;;;17.90;66.50;;;;;;4893251;29;20102;-90
2021/04/26 11:52:22;;;;;;;11.10;4.72;;;18.00;67.80;;;;;;4951163;28;20048;-86
2021/04/26 11:54:51;;;;;;;12.02;4.95;;;17.80;66.70;;;;;;4951301;29;20418;-84
2021/04/26 11:57:23;;;;;;;14.75;5.00;;;17.60;66.50;;;;;;4952405;28;20055;-85
2021/04/26 11:59:58;;;;;;;15.70;5.13;;;17.50;67.30;;;;;;4953016;28;20106;-82
2021/04/26 12:02:31;;;;;;;21.90;5.15;;;17.40;67.00;;;;;;4949875;28;20057;-82
2021/04/26 12:05:25;;;;;;;14.93;5.00;;;17.40;67.10;;;;;;4951522;29;20047;-81
2021/04/26 12:07:52;;;;;;;13.40;4.55;;;17.40;67.20;;;;;;4952730;28;20043;-81
2021/04/26 12:10:22;;;;;;;13.40;4.65;;;17.30;66.90;;;;;;4951163;28;20130;-82
2021/04/26 12:12:52;;;;;;;11.10;5.38;;;17.40;67.00;;;;;;4952773;28;20051;-84
2021/04/26 12:15:21;;;;;;;10.20;4.43;;;17.40;65.70;;;;;;4953555;28;20070;-84
2021/04/26 12:17:55;;;;;;;7.20;4.35;;;17.40;66.30;;;;;;4952789;28;20066;-84
2021/04/26 12:20:27;;;;;;;11.90;4.18;;;17.40;65.20;;;;;;4950731;28;20063;-82
2021/04/26 12:23:04;;;;;;;9.75;4.43;;;17.30;64.10;;;;;;4944755;28;20052;-82
2021/04/26 12:25:36;;;;;;;18.98;4.68;;;17.10;64.10;;;;;;4952250;28;20490;-82
2021/04/26 12:28:05;;;;;;;9.07;4.13;;;17.10;64.10;;;;;;4963222;28;20473;-81
2021/04/26 12:30:39;;;;;;;12.13;4.53;;;17.10;62.90;;;;;;4953062;29;20490;-85
2021/04/26 12:33:23;;;;;;;9.35;4.22;;;17.10;64.10;;;;;;4951394;28;20055;-82
2021/04/26 12:35:50;;;;;;;12.63;4.75;;;17.10;63.60;;;;;;4952528;28;20487;-84
2021/04/26 12:38:23;;;;;;;9.77;4.30;;;17.10;64.60;;;;;;4950148;28;20039;-85
2021/04/26 12:40:50;;;;;;;12.25;4.22;;;17.10;65.30;;;;;;4952192;28;20054;-81
2021/04/26 12:43:17;;;;;;;12.77;4.78;;;17.10;66.50;;;;;;4951316;28;20162;-82
2021/04/26 12:45:45;;;;;;;12.15;5.50;;;16.90;66.90;;;;;;4951363;29;20043;-84
2021/04/26 12:48:17;;;;;;;13.13;5.00;;;16.80;66.90;;;;;;4951825;28;20114;-85
2021/04/26 12:50:49;;;;;;;12.75;4.80;;;16.60;67.20;;;;;;4949313;29;20106;-85
2021/04/26 12:53:21;;;;;;;13.88;4.97;;;16.40;67.30;;;;;;4949645;28;20055;-82
2021/04/26 12:55:56;;;;;;;13.18;5.05;;;16.30;67.40;;;;;;4951103;29;20039;-83
2021/04/26 12:58:30;;;;;;;12.65;4.65;;;16.20;68.30;;;;;;4950785;28;20091;-85
2021/04/26 13:01:02;;;;;;;12.30;4.32;;;16.20;68.30;;;;;;4951085;29;20502;-84
2021/04/26 13:03:36;;;;;;;12.75;4.43;;;16.20;69.10;;;;;;4952492;28;20463;-81
2021/04/26 13:06:09;;;;;;;9.77;4.45;;;16.20;69.30;;;;;;4952523;28;20046;-91
2021/04/26 13:08:48;;;;;;;10.77;4.85;;;16.20;69.40;;;;;;4950823;29;20567;-85
2021/04/26 13:11:35;;;;;;;12.20;4.30;;;16.10;68.80;;;;;;4950025;28;20458;-88
2021/04/26 13:14:12;;;;;;;8.63;4.18;;;16.10;68.90;;;;;;4948316;29;20589;-85
2021/04/26 13:16:43;;;;;;;9.55;3.97;;;16.10;69.80;;;;;;4950387;29;20054;-87
2021/04/26 13:19:11;;;;;;;16.15;4.25;;;16.20;68.50;;;;;;4950812;28;20111;-90
2021/04/26 13:21:44;;;;;;;11.07;3.95;;;16.20;68.30;;;;;;4952286;29;20061;-90
2021/04/26 13:24:11;;;;;;;9.50;3.92;;;16.30;67.50;;;;;;4950474;28;20056;-88
2021/04/26 13:26:42;;;;;;;8.75;3.67;;;16.30;67.50;;;;;;4949960;28;20098;-90
2021/04/26 13:29:14;;;;;;;10.27;3.80;;;16.20;67.40;;;;;;4950201;28;20466;-89
2021/04/26 13:31:46;;;;;;;7.78;3.55;;;16.20;67.40;;;;;;4947519;29;20062;-90
2021/04/26 13:34:13;;;;;;;8.18;3.70;;;16.20;67.40;;;;;;4951602;28;20063;-91
2021/04/26 13:36:40;;;;;;;8.90;3.35;;;16.30;67.20;;;;;;4953462;28;20051;-90
2021/04/26 13:39:09;;;;;;;14.15;3.90;;;16.40;67.60;;;;;;4951025;28;20051;-86
2021/04/26 13:41:36;;;;;;;10.20;4.03;;;16.40;66.90;;;;;;4951877;28;20047;-86
2021/04/26 13:44:03;;;;;;;10.00;3.60;;;16.50;67.20;;;;;;4953220;28;20058;-90
2021/04/26 13:46:30;;;;;;;11.35;3.75;;;16.40;67.30;;;;;;4950543;29;20106;-88
2021/04/26 13:48:58;;;;;;;11.00;3.28;;;16.50;67.90;;;;;;4952196;28;20434;-91
2021/04/26 13:51:24;;;;;;;11.52;3.90;;;16.50;68.00;;;;;;4955952;28;20058;-90
2021/04/26 13:53:51;;;;;;;11.70;3.97;;;16.50;67.20;;;;;;4956102;29;20058;-87
2021/04/26 13:56:20;;;;;;;42.42;5.18;;;16.50;67.50;;;;;;4952963;28;20102;-89
2021/04/26 13:58:46;;;;;;;9.02;3.95;;;16.50;67.40;;;;;;4956105;28;20459;-90
2021/04/26 14:01:13;;;;;;;16.38;3.50;;;16.50;66.80;;;;;;4954830;28;20047;-88
2021/04/26 14:03:40;;;;;;;12.30;4.05;;;16.50;66.40;;;;;;4955574;29;20459;-88
2021/04/26 14:06:07;;;;;;;13.90;3.63;;;16.50;67.20;;;;;;4956137;28;20463;-86
2021/04/26 14:08:33;;;;;;;16.80;4.93;;;16.40;67.20;;;;;;4956568;28;20102;-90
2021/04/26 14:11:00;;;;;;;9.18;3.72;;;16.30;67.80;;;;;;4956202;28;20051;-89
2021/04/26 14:13:29;;;;;;;14.02;4.10;;;16.20;68.20;;;;;;4949619;29;20047;-88
2021/04/26 14:15:55;;;;;;;10.13;3.90;;;16.20;68.90;;;;;;4954114;29;20051;-86
2021/04/26 14:18:21;;;;;;;13.35;4.13;;;16.30;69.10;;;;;;4955973;28;20066;-86
2021/04/26 14:20:48;;;;;;;11.10;3.80;;;16.30;69.00;;;;;;4955139;29;20494;-90
2021/04/26 14:23:15;;;;;;;12.80;4.15;;;16.30;67.90;;;;;;4954147;28;20442;-89
2021/04/26 14:25:42;;;;;;;20.83;4.22;;;16.40;68.10;;;;;;4954197;29;20098;-90
2021/04/26 14:28:11;;;;;;;13.57;3.75;;;16.50;68.50;;;;;;4954192;28;20418;-87
2021/04/26 14:30:39;;;;;;;10.50;3.30;;;16.50;67.90;;;;;;4955207;29;20080;-87
2021/04/26 14:33:05;;;;;;;17.97;3.70;;;16.50;67.90;;;;;;4950844;28;20058;-90
2021/04/26 14:35:33;;;;;;;8.70;2.83;;;16.60;67.90;;;;;;4950824;28;20094;-86
2021/04/26 14:38:00;;;;;;;11.82;3.58;;;16.70;66.70;;;;;;4956046;28;20503;-86
2021/04/26 14:40:28;;;;;;;12.95;4.18;;;16.70;66.20;;;;;;4954290;28;20442;-88
2021/04/26 14:42:55;;;;;;;14.07;3.10;;;16.70;67.30;;;;;;4955449;28;20066;-86
2021/04/26 14:45:23;;;;;;;10.23;3.13;;;16.80;67.20;;;;;;4955251;28;20051;-87
2021/04/26 14:47:54;;;;;;;8.27;2.92;;;16.90;67.10;;;;;;4951962;29;20114;-87
2021/04/26 14:50:22;;;;;;;11.80;3.10;;;17.00;66.90;;;;;;4954482;28;20051;-86
2021/04/26 14:52:49;;;;;;;13.88;3.53;;;17.00;66.90;;;;;;4954959;28;20454;-91
2021/04/26 14:55:16;;;;;;;10.30;3.00;;;17.10;67.30;;;;;;4951187;28;20047;-90
2021/04/26 14:57:43;;;;;;;9.00;2.83;;;17.20;66.90;;;;;;4955004;28;20506;-89
2021/04/26 15:00:11;;;;;;;12.10;3.35;;;17.20;65.80;;;;;;4937640;28;20102;-90
2021/04/26 15:02:39;;;;;;;10.10;3.25;;;17.20;65.50;;;;;;4955216;28;20058;-91
2021/04/26 15:05:07;;;;;;;12.77;3.53;;;17.20;66.40;;;;;;4955047;28;20062;-88
2021/04/26 15:07:37;;;;;;;13.93;3.63;;;17.20;67.00;;;;;;4954195;28;20047;-89
2021/04/26 15:10:05;;;;;;;19.10;3.47;;;17.20;67.70;;;;;;4953889;28;20055;-89
2021/04/26 15:12:31;;;;;;;12.43;3.05;;;17.20;67.30;;;;;;4951741;28;20058;-92
2021/04/26 15:14:58;;;;;;;9.10;3.33;;;17.30;67.30;;;;;;4955062;28;20047;-87
2021/04/26 15:17:24;;;;;;;10.50;3.50;;;17.40;67.30;;;;;;4951713;28;20050;-83
2021/04/26 15:19:51;;;;;;;10.10;2.42;;;17.40;66.40;;;;;;4952231;28;20118;-80
2021/04/26 15:22:17;;;;;;;13.88;3.10;;;17.30;65.60;;;;;;4952908;28;20055;-82
2021/04/26 15:24:44;;;;;;;12.57;3.00;;;17.40;66.50;;;;;;4949152;28;20047;-88
2021/04/26 15:27:11;;;;;;;9.48;2.67;;;17.50;67.30;;;;;;4955679;28;20121;-82
2021/04/26 15:29:38;;;;;;;9.57;3.30;;;17.40;67.10;;;;;;4950657;28;20043;-81
2021/04/26 15:32:07;;;;;;;9.98;3.13;;;17.40;67.60;;;;;;4958021;28;20120;-84
2021/04/26 15:34:38;;;;;;;9.93;2.83;;;17.50;67.70;;;;;;4950073;29;20055;-84
2021/04/26 15:37:06;;;;;;;19.02;3.10;;;17.60;66.40;;;;;;4951082;28;20051;-84
2021/04/26 15:39:38;;;;;;;12.65;2.95;;;17.60;66.60;;;;;;4951692;28;20573;-82
2021/04/26 15:42:06;;;;;;;12.57;2.88;;;17.70;66.70;;;;;;4955624;28;20051;-84
2021/04/26 15:44:33;;;;;;;9.45;3.10;;;17.60;66.50;;;;;;4952126;28;20051;-80
2021/04/26 15:47:00;;;;;;;6.88;2.67;;;17.60;66.70;;;;;;4950184;28;20051;-83
2021/04/26 15:49:27;;;;;;;10.35;3.42;;;17.60;67.00;;;;;;4948129;28;20043;-83
2021/04/26 15:51:54;;;;;;;18.20;2.88;;;17.60;67.00;;;;;;4951525;29;20047;-83
2021/04/26 15:54:20;;;;;;;11.13;3.30;;;17.70;67.70;;;;;;4953343;28;20106;-86
2021/04/26 15:56:47;;;;;;;12.95;3.28;;;17.70;67.40;;;;;;4950592;29;20046;-83
2021/04/26 15:59:13;;;;;;;9.95;2.80;;;17.80;66.90;;;;;;4951891;28;20454;-86
2021/04/26 16:01:41;;;;;;;8.55;3.15;;;17.80;66.80;;;;;;4952129;29;20063;-82
2021/04/26 16:04:08;;;;;;;10.02;2.90;;;17.70;66.80;;;;;;4951132;28;20050;-82
2021/04/26 16:06:34;;;;;;;8.80;3.15;;;17.60;66.70;;;;;;4953941;28;20051;-84
2021/04/26 16:09:01;;;;;;;11.27;3.70;;;17.50;66.80;;;;;;4953321;29;20059;-84
2021/04/26 16:11:27;;;;;;;10.27;3.00;;;17.40;66.90;;;;;;4965681;28;20043;-84
2021/04/26 16:13:53;;;;;;;10.18;3.95;;;17.40;66.60;;;;;;4952434;29;20047;-83
2021/04/26 16:16:20;;;;;;;12.93;3.13;;;17.40;67.20;;;;;;4952208;28;20058;-82
2021/04/26 16:18:47;;;;;;;12.50;3.28;;;17.40;67.50;;;;;;4953499;28;20500;-86
2021/04/26 16:21:14;;;;;;;7.63;3.10;;;17.40;67.10;;;;;;4951927;28;20406;-85
2021/04/26 16:23:41;;;;;;;13.38;3.70;;;17.30;67.20;;;;;;4951789;29;20094;-86
2021/04/26 16:26:07;;;;;;;15.07;3.30;;;17.30;67.50;;;;;;4946632;28;20043;-83
2021/04/26 16:28:33;;;;;;;8.63;3.50;;;17.30;67.60;;;;;;4953293;29;20054;-82
2021/04/26 16:31:00;;;;;;;13.63;4.20;;;17.30;67.90;;;;;;4953508;29;20114;-84
2021/04/26 16:33:27;;;;;;;9.05;3.50;;;17.20;67.60;;;;;;4953484;28;20102;-82
2021/04/26 16:35:56;;;;;;;9.48;3.85;;;17.10;67.40;;;;;;4946326;28;20054;-83
2021/04/26 16:38:23;;;;;;;9.48;3.38;;;16.90;67.70;;;;;;4949705;28;20117;-85
2021/04/26 16:40:52;;;;;;;12.68;4.15;;;16.80;68.40;;;;;;4950827;28;20467;-83
2021/04/26 16:43:19;;;;;;;9.63;3.70;;;16.70;67.30;;;;;;4951907;28;20055;-82
2021/04/26 16:45:45;;;;;;;11.52;3.80;;;16.70;68.00;;;;;;4952330;29;20392;-81
2021/04/26 16:48:12;;;;;;;12.88;4.15;;;16.70;68.30;;;;;;4953478;28;20043;-82
2021/04/26 16:50:42;;;;;;;13.35;3.58;;;16.60;68.70;;;;;;4953713;28;20054;-83
2021/04/26 16:53:08;;;;;;;23.80;4.57;;;16.60;69.00;;;;;;4947943;28;20485;-85
2021/04/26 16:55:35;;;;;;;13.25;3.72;;;16.70;69.20;;;;;;4948171;28;20043;-83
2021/04/26 16:58:02;;;;;;;10.93;3.47;;;16.70;68.30;;;;;;4944912;28;20045;-84
2021/04/26 17:00:34;;;;;;;11.30;4.10;;;16.70;68.70;;;;;;4942152;28;20043;-83
2021/04/26 17:03:10;;;;;;;11.70;3.70;;;16.70;69.00;;;;;;4952845;28;20129;-83
2021/04/26 17:05:37;;;;;;;13.73;4.03;;;16.70;68.90;;;;;;4944105;28;20458;-84
2021/04/26 17:08:03;;;;;;;12.18;4.05;;;16.70;68.90;;;;;;4939149;28;20470;-83
2021/04/26 17:10:30;;;;;;;14.60;4.50;;;16.60;69.00;;;;;;4947595;28;20051;-83
2021/04/26 17:12:57;;;;;;;11.35;3.72;;;16.50;68.80;;;;;;4938851;29;20522;-82
2021/04/26 17:15:23;;;;;;;9.60;3.90;;;16.50;68.80;;;;;;4948038;28;20066;-88
2021/04/26 17:17:50;;;;;;;11.18;4.22;;;16.40;69.10;;;;;;4944525;28;20051;-83
2021/04/26 17:20:16;;;;;;;13.90;4.65;;;16.40;69.00;;;;;;4944884;28;20051;-84
2021/04/26 17:22:43;;;;;;;11.70;3.80;;;16.40;69.00;;;;;;4949703;28;20059;-82
2021/04/26 17:25:11;;;;;;;10.25;3.85;;;16.40;69.40;;;;;;4950487;28;20395;-84
2021/04/26 17:27:37;;;;;;;10.68;3.88;;;16.50;69.50;;;;;;4948097;28;20043;-85
2021/04/26 17:30:06;;;;;;;13.77;4.28;;;16.50;69.30;;;;;;4949915;28;20047;-81
2021/04/26 17:32:32;;;;;;;11.93;3.47;;;16.40;68.40;;;;;;4945700;28;20075;-83
2021/04/26 17:34:59;;;;;;;9.88;3.58;;;16.40;68.60;;;;;;4939781;28;20063;-85
2021/04/26 17:37:25;;;;;;;22.40;4.80;;;16.50;68.80;;;;;;4945607;28;20066;-82
2021/04/26 17:39:52;;;;;;;10.13;3.90;;;16.40;68.70;;;;;;4938850;28;20517;-84
2021/04/26 17:42:19;;;;;;;14.68;3.70;;;16.40;68.80;;;;;;4929910;28;20522;-86
2021/04/26 17:44:48;;;;;;;12.45;3.85;;;16.40;69.10;;;;;;4940966;28;20051;-84
2021/04/26 17:47:17;;;;;;;10.00;3.53;;;16.30;68.90;;;;;;4937110;28;20043;-81
2021/04/26 17:49:45;;;;;;;9.90;3.67;;;16.20;69.10;;;;;;4932664;29;20059;-85
2021/04/26 17:52:11;;;;;;;10.35;3.47;;;16.20;69.50;;;;;;4938701;28;20051;-84
2021/04/26 17:54:37;;;;;;;11.73;3.53;;;16.10;69.50;;;;;;4939052;28;20055;-86
2021/04/26 17:57:04;;;;;;;11.25;3.80;;;16.10;69.10;;;;;;4940150;28;20094;-84
2021/04/26 17:59:31;;;;;;;14.07;3.17;;;16.20;69.20;;;;;;4937441;29;20043;-86
2021/04/26 18:01:57;;;;;;;11.43;2.90;;;16.40;68.80;;;;;;4936279;28;20055;-84
2021/04/26 18:04:23;;;;;;;13.02;3.10;;;16.50;68.70;;;;;;4939147;28;20059;-87
2021/04/26 18:06:50;;;;;;;11.20;3.38;;;16.90;68.50;;;;;;4941440;28;20069;-84
2021/04/26 18:09:16;;;;;;;11.27;2.97;;;17.30;67.50;;;;;;4939300;29;20051;-81
2021/04/26 18:11:43;;;;;;;10.95;3.40;;;17.80;66.70;;;;;;4937786;28;20114;-82
2021/04/26 18:14:09;;;;;;;9.13;2.60;;;18.40;65.70;;;;;;4939376;28;20111;-84
2021/04/26 18:16:36;;;;;;;8.57;2.70;;;18.80;64.80;;;;;;4940433;28;20040;-85
2021/04/26 18:19:03;;;;;;;8.40;2.65;;;19.30;64.50;;;;;;4937481;28;20094;-81
2021/04/26 18:21:30;;;;;;;9.98;2.95;;;19.60;64.10;;;;;;4941514;28;20099;-83
2021/04/26 18:23:56;;;;;;;9.35;3.00;;;19.60;63.70;;;;;;4934393;28;20129;-81
2021/04/26 18:26:22;;;;;;;8.07;2.63;;;19.70;63.60;;;;;;4941020;28;20561;-86
2021/04/26 18:28:53;;;;;;;13.73;3.08;;;19.70;63.10;;;;;;4938165;28;20054;-86
2021/04/26 18:31:21;;;;;;;10.27;2.67;;;19.30;63.50;;;;;;4937862;28;20094;-84
2021/04/26 18:33:47;;;;;;;10.23;2.50;;;18.80;63.20;;;;;;4943417;29;20059;-84
2021/04/26 18:36:14;;;;;;;7.70;2.10;;;18.50;63.20;;;;;;4962422;28;20506;-85
2021/04/26 18:38:41;;;;;;;13.82;2.60;;;18.10;63.50;;;;;;4945101;28;20130;-85
2021/04/26 18:41:07;;;;;;;11.95;2.40;;;17.60;63.70;;;;;;4948054;28;20063;-84
2021/04/26 18:43:35;;;;;;;8.85;2.80;;;17.10;64.40;;;;;;4947550;28;20123;-86
2021/04/26 18:46:05;;;;;;;9.80;2.10;;;16.60;65.20;;;;;;4948642;29;20577;-87
2021/04/26 18:48:34;;;;;;;11.63;2.33;;;15.90;65.70;;;;;;4948467;28;20047;-85
2021/04/26 18:51:02;;;;;;;10.02;2.00;;;15.30;66.70;;;;;;4946951;29;20047;-87
2021/04/26 18:53:29;;;;;;;5.97;2.70;;;14.90;67.60;;;;;;4947568;28;20055;-85
2021/04/26 18:55:59;;;;;;;8.27;1.95;;;14.60;69.20;;;;;;4949450;28;20287;-91
2021/04/26 18:58:25;;;;;;;8.88;2.80;;;14.20;69.60;;;;;;4953626;28;20059;-91
2021/04/26 19:00:55;;;;;;;9.82;2.30;;;13.90;70.70;;;;;;4942128;28;20438;-86
2021/04/26 19:03:21;;;;;;;15.52;2.85;;;13.70;71.80;;;;;;4952268;28;20059;-89
2021/04/26 19:05:48;;;;;;;9.60;2.25;;;13.60;72.50;;;;;;4943552;28;20050;-88
2021/04/26 19:08:14;;;;;;;10.65;2.67;;;13.40;73.40;;;;;;4950147;28;20067;-85
2021/04/26 19:10:41;;;;;;;10.57;2.70;;;13.20;73.80;;;;;;4942520;29;20044;-87
2021/04/26 19:13:07;;;;;;;9.15;2.45;;;13.10;74.80;;;;;;4940912;28;20060;-85
2021/04/26 19:15:34;;;;;;;11.18;3.10;;;13.00;75.30;;;;;;4942543;28;20040;-84
2021/04/26 19:18:00;;;;;;;14.18;3.17;;;12.80;75.90;;;;;;4948636;29;20055;-84
2021/04/26 19:20:27;;;;;;;11.63;2.45;;;12.80;76.40;;;;;;4944742;28;20054;-84
2021/04/26 19:22:53;;;;;;;10.57;2.92;;;12.60;76.80;;;;;;4938843;28;20139;-85
2021/04/26 19:25:21;;;;;;;13.10;3.38;;;12.50;78.00;;;;;;4941238;28;20055;-87
2021/04/26 19:27:48;;;;;;;13.63;3.45;;;12.30;78.70;;;;;;4943700;28;20060;-86
2021/04/26 19:30:17;;;;;;;15.15;3.40;;;12.10;79.40;;;;;;4941115;28;20426;-86
2021/04/26 19:32:44;;;;;;;10.90;3.13;;;12.00;80.20;;;;;;4943045;28;20102;-87
2021/04/26 19:35:12;;;;;;;9.50;2.92;;;11.90;80.70;;;;;;4934279;28;20047;-87
2021/04/26 19:37:43;;;;;;;18.38;3.20;;;11.80;80.70;;;;;;4932119;28;20055;-82
2021/04/26 19:40:10;;;;;;;10.48;3.33;;;11.70;80.90;;;;;;4938678;28;20106;-83
2021/04/26 19:42:37;;;;;;;11.20;3.03;;;11.60;81.20;;;;;;4934546;28;20059;-91
2021/04/26 19:45:05;;;;;;;13.45;3.25;;;11.50;82.10;;;;;;4939735;28;20068;-84
2021/04/26 19:47:32;;;;;;;15.18;3.30;;;11.40;82.70;;;;;;4946191;28;20050;-84
2021/04/26 19:49:58;;;;;;;16.08;3.28;;;11.30;82.90;;;;;;4942153;28;20059;-84
2021/04/26 19:52:26;;;;;;;14.30;3.42;;;11.20;83.80;;;;;;4930872;28;20099;-84
2021/04/26 19:54:53;;;;;;;10.43;3.35;;;11.10;83.80;;;;;;4930998;28;20067;-85
2021/04/26 19:57:20;;;;;;;15.65;3.45;;;11.00;85.10;;;;;;4931812;28;20055;-84
2021/04/26 19:59:47;;;;;;;15.52;3.97;;;11.00;85.10;;;;;;4932030;28;20052;-83
2021/04/26 20:02:14;;;;;;;19.75;3.60;;;11.00;85.10;;;;;;4928033;28;20529;-83
2021/04/26 20:04:41;;;;;;;19.00;3.50;;;10.90;85.80;;;;;;4926252;28;20420;-82
2021/04/26 20:07:07;;;;;;;11.10;4.03;;;10.70;85.90;;;;;;4931777;28;20076;-84
2021/04/26 20:09:37;;;;;;;15.90;3.45;;;10.70;86.20;;;;;;4930011;29;20119;-83
2021/04/26 20:12:05;;;;;;;11.40;3.78;;;10.60;86.20;;;;;;4932006;28;20533;-83
2021/04/26 20:14:34;;;;;;;10.43;3.70;;;10.50;86.40;;;;;;4930508;28;20055;-83
2021/04/26 20:17:03;;;;;;;14.70;4.95;;;10.50;87.10;;;;;;4929516;28;20056;-83
2021/04/26 20:19:31;;;;;;;15.35;4.30;;;10.40;87.40;;;;;;4929443;29;20102;-83
2021/04/26 20:21:58;;;;;;;12.77;3.65;;;10.40;87.50;;;;;;4931810;28;20061;-83
2021/04/26 20:24:24;;;;;;;13.10;4.05;;;10.30;87.90;;;;;;4929403;28;20163;-83
2021/04/26 20:26:54;;;;;;;14.65;3.83;;;10.20;88.20;;;;;;4928652;28;20054;-82